Northway, AK

6:35 PM AKDT on September 14, 2014 (GMT -0800)
Northway | Change Station
CLOSE
Current Station
Airport
Location: Northway,
Elevation: 1722 ft
Nearby Weather Stations

Elev 1722 ft 62.96 °N, 141.93 °W | Updated 42 minutes ago

Mostly Cloudy
Mostly Cloudy
66 °F
Feels Like 66 °F
N
4
Wind Variable Wind from Variable

Today
High -- | Low -- °F
--% Chance of Precip.
Yesterday
High -- | Low -- °F
Precip. -- in
6:49 AM 7:54 PM
Waning Gibbous, 60% visible
Pressure 29.67 in
Visibility 10.0 miles
Clouds Few 3700 ft
Mostly Cloudy 12000 ft
Mostly Cloudy 18000 ft
Mostly Cloudy 24000 ft
Dew Point 47 °F
Humidity 50%
Rainfall 0.00 in
Snow Depth 1 in , 1 in , 1 in
UV 0 out of 12
Pollen Not available.
Air Quality Not available.
Flu Activity Not available.
METAR PAOR 150153Z VRB03KT 10SM FEW037 BKN120 BKN180 BKN240 19/08 A2966 RMK AO2 SLP045 T01890083

More Conditions Fewer Conditions

Pressure 29.67 in
Visibility 10.0 miles
Clouds Few 3700 ft
Mostly Cloudy 12000 ft
Mostly Cloudy 18000 ft
Mostly Cloudy 24000 ft
Dew Point 47 °F
Humidity 50%
Rainfall 0.00 in
Snow Depth 1 in , 1 in , 1 in
UV 0 out of 12
Pollen Not available.
Air Quality Not available.
Flu Activity Not available.
METAR PAOR 150153Z VRB03KT 10SM FEW037 BKN120 BKN180 BKN240 19/08 A2966 RMK AO2 SLP045 T01890083

More Conditions Fewer Conditions

10-Day Weather Forecast

Almanac

Astronomy

Sep. 14, 2014 Rise Set
Actual Time 6:49 AM AKDT 7:54 PM AKDT
Civil Twilight 6:02 AM AKDT 8:41 PM AKDT
Nautical Twilight 5:03 AM AKDT 9:39 PM AKDT
Astronomical Twilight 3:52 AM AKDT 10:49 PM AKDT
Moon 9:58 PM AKDT (9/14) 2:59 PM AKDT (9/14)
Length of Visible Light 14h 38m
Length of Day
13h 04m
Tomorrow will be 6m 6s shorter.
Waning Gibbous, 60% of the Moon is Illuminated
Today
Waning Gibbous
Sep 15
Last Quarter
Sep 24
New
Oct 1
First Quarter
Oct 8
Full

Today's Extremes

State Highs State Lows

Community

WunderPhotos

Upload Photos

1,753,381 photos uploaded!

Nearby

Snow Depth

Station Depth Elevation
Point Mackenzie 1 in 200 ft
Munson Ridge 1 in 3100 ft
Turnagain Pass 1 in 1880 ft
Cooper Lake 21 in 1200 ft
Mcneil Canyon 1 in 1320 ft

Earthquake Activity

City Distance Mag. Time & Date
No recent earthquake activity has been reported nearby.
Minimum magnitude displayed is 2.5.

Coastal Water Temperatures

Place Temperature
No Stations Reporting

Nearby Weather Stations